Terminal Aerodrome Forecast
Issued by NWS

Current Version | Previous Version | Text Only | Print | Product List | Glossary Off
Versions: 1 2 3 4 5 6 7 8 9 10 11 12 13 14 15 16 17 18 19 20 21 22

000
FTUS41 KRLX 262300
TAFCKB
TAF
KCKB 262337Z 2700/2724 35005KT P6SM -RA OVC015
     FM270500 32006KT P6SM OVC015
     FM271300 32005KT P6SM BKN025
     FM271600 31006KT P6SM BKN035
     FM271900 30006KT P6SM SCT045=

USA.gov is the U.S. government's official web portal to all federal, state and local government web resources and services.